Time;durP1;ratioP1;P1;durP2;ratioP2;P2;SDS_P1;SDS_P2;PMS_P1;PMS_P2;Temp;Humidity;BMP_temperature;BMP_pressure;BME280_temperature;BME280_humidity;BME280_pressure;Samples;Min_cycle;Max_cycle;Signal;HPM_P1;HPM_P2
2022/01/24 00:01:19;;;;;;;162.50;69.28;;;;;;;;;;10472575;28;20240;-72
2022/01/24 00:06:22;;;;;;;167.35;68.88;;;;;;;;;;10472497;28;20248;-72
2022/01/24 00:11:35;;;;;;;168.05;68.80;;;;;;;;;;10472803;28;20041;-71
2022/01/24 00:16:58;;;;;;;164.85;64.43;;;;;;;;;;10486891;28;20466;-72
2022/01/24 00:27:36;;;;;;;161.65;64.60;;;;;;;;;;10387524;28;20052;-71
2022/01/24 00:32:39;;;;;;;158.90;60.33;;;;;;;;;;10386332;28;20066;-72
2022/01/24 00:37:42;;;;;;;164.23;60.50;;;;;;;;;;10386093;28;20329;-72
2022/01/24 00:42:52;;;;;;;159.10;59.72;;;;;;;;;;10399318;28;20058;-72
2022/01/24 00:53:31;;;;;;;153.98;61.00;;;;;;;;;;10406458;28;20056;-72
2022/01/24 00:58:35;;;;;;;143.00;58.28;;;;;;;;;;10461244;28;20048;-73
2022/01/24 01:03:37;;;;;;;151.65;62.05;;;;;;;;;;10477834;28;20083;-72
2022/01/24 01:19:22;;;;;;;137.90;61.53;;;;;;;;;;10492208;28;20028;-71
2022/01/24 01:24:26;;;;;;;163.55;64.63;;;;;;;;;;10477638;28;20329;-71
2022/01/24 01:29:35;;;;;;;157.63;62.72;;;;;;;;;;10464807;28;20042;-71
2022/01/24 01:40:28;;;;;;;176.18;70.43;;;;;;;;;;10475131;28;20260;-72
2022/01/24 01:56:11;;;;;;;170.85;74.20;;;;;;;;;;10490236;28;20053;-71
2022/01/24 02:01:15;;;;;;;189.75;75.88;;;;;;;;;;10475382;28;20044;-71
2022/01/24 02:06:17;;;;;;;181.30;77.82;;;;;;;;;;10476587;28;20040;-70
2022/01/24 02:11:20;;;;;;;188.38;79.57;;;;;;;;;;10476388;28;20095;-71
2022/01/24 02:16:32;;;;;;;195.70;80.00;;;;;;;;;;10475108;28;20052;-73
2022/01/24 02:21:44;;;;;;;182.85;76.35;;;;;;;;;;10490229;28;20091;-73
2022/01/24 02:26:49;;;;;;;192.10;76.05;;;;;;;;;;10489100;28;20269;-71
2022/01/24 02:31:54;;;;;;;200.57;78.85;;;;;;;;;;10475836;28;20060;-72
2022/01/24 02:37:00;;;;;;;205.38;75.88;;;;;;;;;;10474959;28;20060;-71
2022/01/24 02:52:44;;;;;;;195.02;74.70;;;;;;;;;;10488584;28;20045;-71
2022/01/24 02:57:46;;;;;;;198.32;77.28;;;;;;;;;;10475038;28;20036;-72
2022/01/24 03:02:48;;;;;;;198.77;75.78;;;;;;;;;;10475420;28;20107;-72
2022/01/24 03:07:52;;;;;;;194.38;77.60;;;;;;;;;;10475186;28;20151;-72
2022/01/24 03:13:10;;;;;;;193.25;78.05;;;;;;;;;;10474461;28;20048;-71
2022/01/24 03:18:12;;;;;;;199.48;77.60;;;;;;;;;;10487536;28;20056;-71
2022/01/24 03:23:18;;;;;;;175.75;74.05;;;;;;;;;;10475353;28;20047;-71
2022/01/24 03:28:24;;;;;;;183.20;74.35;;;;;;;;;;10488066;28;20045;-72
2022/01/24 03:33:27;;;;;;;173.68;73.05;;;;;;;;;;10468240;28;20083;-72
2022/01/24 03:38:31;;;;;;;172.95;72.43;;;;;;;;;;10474255;28;20061;-71
2022/01/24 03:43:33;;;;;;;163.20;70.00;;;;;;;;;;10473252;28;20036;-71
2022/01/24 03:48:40;;;;;;;161.00;69.28;;;;;;;;;;10473770;28;20037;-70
2022/01/24 03:53:47;;;;;;;166.05;69.57;;;;;;;;;;10472381;28;20061;-71
2022/01/24 03:58:50;;;;;;;168.50;71.47;;;;;;;;;;10472840;28;20106;-71
2022/01/24 04:03:52;;;;;;;184.10;73.25;;;;;;;;;;10473151;28;20086;-71
2022/01/24 04:08:55;;;;;;;180.00;74.07;;;;;;;;;;10473911;28;20041;-71
2022/01/24 04:14:10;;;;;;;191.30;77.88;;;;;;;;;;10471485;28;20087;-71
2022/01/24 04:19:35;;;;;;;189.07;79.07;;;;;;;;;;10494780;28;20056;-71
2022/01/24 04:24:37;;;;;;;171.52;80.20;;;;;;;;;;10480638;28;20045;-71
2022/01/24 04:29:39;;;;;;;189.73;83.45;;;;;;;;;;10481590;28;20215;-71
2022/01/24 04:34:41;;;;;;;198.60;85.25;;;;;;;;;;10480894;28;20275;-70
2022/01/24 04:39:46;;;;;;;198.90;85.78;;;;;;;;;;10481017;28;20064;-71
2022/01/24 04:45:06;;;;;;;203.98;88.00;;;;;;;;;;10480345;28;20044;-71
2022/01/24 04:50:40;;;;;;;214.65;89.15;;;;;;;;;;10493047;28;20045;-71
2022/01/24 04:55:44;;;;;;;214.43;90.38;;;;;;;;;;10479723;28;20060;-71
2022/01/24 05:00:46;;;;;;;213.07;88.70;;;;;;;;;;10480176;28;20091;-71
2022/01/24 05:05:49;;;;;;;214.13;88.88;;;;;;;;;;10480364;28;20321;-71
2022/01/24 05:11:00;;;;;;;219.50;90.55;;;;;;;;;;10480371;28;20040;-71
2022/01/24 05:21:43;;;;;;;280.17;113.15;;;;;;;;;;10491855;28;20041;-70
2022/01/24 05:26:47;;;;;;;252.02;102.47;;;;;;;;;;10492385;28;20041;-71
2022/01/24 05:31:50;;;;;;;270.73;109.28;;;;;;;;;;10478377;28;20037;-72
2022/01/24 05:36:53;;;;;;;266.33;106.57;;;;;;;;;;10477997;28;20045;-72
2022/01/24 05:41:58;;;;;;;267.13;108.75;;;;;;;;;;10477410;28;20072;-72
2022/01/24 05:47:00;;;;;;;239.68;98.93;;;;;;;;;;10478254;28;20083;-71
2022/01/24 05:52:09;;;;;;;246.95;102.18;;;;;;;;;;10476478;28;20075;-71
2022/01/24 05:57:12;;;;;;;240.32;95.25;;;;;;;;;;10491893;28;20045;-71
2022/01/24 06:02:15;;;;;;;242.93;93.97;;;;;;;;;;10477137;28;20053;-72
2022/01/24 06:07:17;;;;;;;243.25;93.72;;;;;;;;;;10476408;28;20355;-71
2022/01/24 06:12:20;;;;;;;236.25;90.43;;;;;;;;;;10471085;28;20566;-72
2022/01/24 06:17:23;;;;;;;244.20;91.55;;;;;;;;;;10472023;28;20044;-72
2022/01/24 06:22:25;;;;;;;255.55;96.55;;;;;;;;;;10474673;28;20228;-72
2022/01/24 06:27:29;;;;;;;247.65;94.22;;;;;;;;;;10475735;28;20079;-72
2022/01/24 06:32:32;;;;;;;230.15;87.90;;;;;;;;;;10476222;28;20041;-72
2022/01/24 06:37:34;;;;;;;218.10;82.80;;;;;;;;;;10473126;28;20210;-71
2022/01/24 06:42:38;;;;;;;217.82;81.75;;;;;;;;;;10471709;28;20297;-72
2022/01/24 06:47:41;;;;;;;232.00;82.47;;;;;;;;;;10474461;28;20052;-72
2022/01/24 06:52:45;;;;;;;218.98;80.50;;;;;;;;;;10473628;28;20049;-72
2022/01/24 06:57:49;;;;;;;225.32;80.15;;;;;;;;;;10474244;28;20106;-72
2022/01/24 07:02:51;;;;;;;217.15;77.15;;;;;;;;;;10473987;28;20045;-70
2022/01/24 07:07:56;;;;;;;245.52;85.47;;;;;;;;;;10476134;28;20040;-71
2022/01/24 07:13:00;;;;;;;231.18;80.90;;;;;;;;;;10487773;28;20127;-69
2022/01/24 07:23:35;;;;;;;233.27;81.28;;;;;;;;;;10469048;28;20410;-70
2022/01/24 07:28:39;;;;;;;262.13;90.68;;;;;;;;;;10474680;28;20037;-69
2022/01/24 07:33:42;;;;;;;241.50;80.57;;;;;;;;;;10473004;28;20059;-69
2022/01/24 07:38:44;;;;;;;236.57;79.53;;;;;;;;;;10471538;28;20107;-69
2022/01/24 07:43:48;;;;;;;236.65;77.82;;;;;;;;;;10472482;28;20048;-67
2022/01/24 07:48:51;;;;;;;244.02;82.22;;;;;;;;;;10453833;28;20067;-68
2022/01/24 07:53:53;;;;;;;242.45;80.40;;;;;;;;;;10473458;28;20053;-68
2022/01/24 07:58:58;;;;;;;223.95;80.25;;;;;;;;;;10474053;28;20041;-70
2022/01/24 08:04:00;;;;;;;253.70;91.85;;;;;;;;;;10472617;28;20049;-71
2022/01/24 08:09:05;;;;;;;235.23;83.45;;;;;;;;;;10472890;28;20055;-68
2022/01/24 08:14:09;;;;;;;202.43;71.93;;;;;;;;;;10473345;28;20044;-71
2022/01/24 08:19:11;;;;;;;216.75;78.80;;;;;;;;;;10473662;28;20080;-72
2022/01/24 08:24:13;;;;;;;202.20;75.78;;;;;;;;;;10472484;28;20052;-71
2022/01/24 08:29:21;;;;;;;197.93;74.25;;;;;;;;;;10487061;28;20271;-68
2022/01/24 08:34:23;;;;;;;194.75;74.00;;;;;;;;;;10472922;28;20052;-71
2022/01/24 08:39:26;;;;;;;196.35;74.63;;;;;;;;;;10471844;28;20368;-72
2022/01/24 08:45:42;;;;;;;192.02;72.90;;;;;;;;;;10472758;28;20037;-70
2022/01/24 08:49:58;;;;;;;186.25;71.55;;;;;;;;;;10472496;28;20332;-68
2022/01/24 08:55:01;;;;;;;182.35;71.78;;;;;;;;;;10472467;28;20041;-71
2022/01/24 09:00:07;;;;;;;182.30;71.05;;;;;;;;;;10472795;28;20045;-69
2022/01/24 09:05:10;;;;;;;188.63;72.10;;;;;;;;;;10473077;28;20056;-67
2022/01/24 09:10:12;;;;;;;176.07;71.00;;;;;;;;;;10480754;28;20048;-69
2022/01/24 09:15:16;;;;;;;177.75;70.40;;;;;;;;;;10479581;28;20328;-72
2022/01/24 09:20:19;;;;;;;180.80;70.55;;;;;;;;;;10479331;28;20049;-68
2022/01/24 09:25:22;;;;;;;187.02;77.38;;;;;;;;;;10478514;28;20049;-69
2022/01/24 09:30:26;;;;;;;189.57;77.10;;;;;;;;;;10478882;28;20048;-71
2022/01/24 09:35:29;;;;;;;176.43;73.78;;;;;;;;;;10478749;28;20057;-69
2022/01/24 09:40:32;;;;;;;179.43;74.55;;;;;;;;;;10479234;28;20057;-68
2022/01/24 09:45:37;;;;;;;170.48;69.68;;;;;;;;;;10478489;28;20049;-71
2022/01/24 09:50:39;;;;;;;163.75;69.93;;;;;;;;;;10477901;28;20044;-72
2022/01/24 09:55:42;;;;;;;159.10;66.13;;;;;;;;;;10476735;28;20359;-71
2022/01/24 10:00:46;;;;;;;176.70;74.50;;;;;;;;;;10476576;28;20053;-70
2022/01/24 10:05:53;;;;;;;161.30;66.00;;;;;;;;;;10477624;28;20390;-69
2022/01/24 10:10:57;;;;;;;154.50;62.22;;;;;;;;;;10491964;28;20222;-69
2022/01/24 10:16:25;;;;;;;147.60;62.85;;;;;;;;;;10476587;28;20049;-71
2022/01/24 10:21:28;;;;;;;146.60;64.72;;;;;;;;;;10477657;28;20049;-70
2022/01/24 10:26:31;;;;;;;155.93;64.80;;;;;;;;;;10475952;28;20107;-72
2022/01/24 10:31:37;;;;;;;141.48;62.60;;;;;;;;;;10475865;28;20040;-71
2022/01/24 10:36:42;;;;;;;139.13;59.80;;;;;;;;;;10490595;28;20041;-72
2022/01/24 10:41:59;;;;;;;138.10;60.10;;;;;;;;;;10476480;28;20048;-71
2022/01/24 10:47:14;;;;;;;140.40;60.17;;;;;;;;;;10475478;28;20033;-69
2022/01/24 10:52:19;;;;;;;;;;;;;;;;;;10474350;28;20036;-72
2022/01/24 10:57:24;;;;;;;127.05;55.17;;;;;;;;;;10474912;28;19947;-72
2022/01/24 11:02:34;;;;;;;120.05;53.80;;;;;;;;;;10474684;28;20043;-72
2022/01/24 11:07:51;;;;;;;114.63;51.17;;;;;;;;;;10488785;28;20048;-70
2022/01/24 11:12:53;;;;;;;116.63;53.15;;;;;;;;;;10488634;28;20048;-70
2022/01/24 11:17:58;;;;;;;113.85;51.00;;;;;;;;;;10476129;28;20041;-71
2022/01/24 11:23:05;;;;;;;108.45;48.83;;;;;;;;;;10446830;28;20037;-72
2022/01/24 11:28:08;;;;;;;100.97;45.28;;;;;;;;;;10487301;28;20047;-68
2022/01/24 11:33:14;;;;;;;106.18;47.22;;;;;;;;;;10473242;28;20052;-67
2022/01/24 11:38:27;;;;;;;92.68;41.10;;;;;;;;;;10475138;28;20057;-69
2022/01/24 11:43:34;;;;;;;86.05;39.10;;;;;;;;;;10474316;28;20047;-70
2022/01/24 11:48:38;;;;;;;93.07;40.95;;;;;;;;;;10433638;28;20042;-68
2022/01/24 11:53:44;;;;;;;93.70;42.05;;;;;;;;;;10474323;28;20091;-68
2022/01/24 11:58:47;;;;;;;96.90;40.72;;;;;;;;;;10469540;28;20048;-71
2022/01/24 12:03:52;;;;;;;81.00;35.50;;;;;;;;;;10436380;28;20041;-72
2022/01/24 12:09:02;;;;;;;88.68;36.28;;;;;;;;;;10473220;28;20052;-72
2022/01/24 12:14:13;;;;;;;83.25;35.75;;;;;;;;;;10485736;28;20355;-72
2022/01/24 12:19:31;;;;;;;90.18;40.80;;;;;;;;;;10476421;28;20095;-67
2022/01/24 12:24:44;;;;;;;96.25;39.80;;;;;;;;;;10467537;28;20041;-69
2022/01/24 12:29:46;;;;;;;92.75;37.45;;;;;;;;;;10471226;28;20057;-70
2022/01/24 12:34:50;;;;;;;93.57;38.15;;;;;;;;;;10438479;28;20041;-70
2022/01/24 12:39:58;;;;;;;92.00;37.92;;;;;;;;;;10476796;28;20061;-69
2022/01/24 12:50:32;;;;;;;89.93;35.42;;;;;;;;;;10480182;28;20037;-70
2022/01/24 12:55:35;;;;;;;85.75;34.33;;;;;;;;;;10478546;28;20045;-68
2022/01/24 13:00:44;;;;;;;86.78;34.55;;;;;;;;;;10471369;28;20057;-71
2022/01/24 13:05:48;;;;;;;88.15;35.28;;;;;;;;;;10476127;28;20363;-69
2022/01/24 13:10:51;;;;;;;74.45;31.92;;;;;;;;;;10476997;28;20044;-70
2022/01/24 13:21:17;;;;;;;82.43;32.88;;;;;;;;;;10493329;28;20048;-67
2022/01/24 13:26:20;;;;;;;81.38;32.08;;;;;;;;;;10492715;28;20328;-74
2022/01/24 13:31:23;;;;;;;73.78;31.20;;;;;;;;;;10478630;28;20048;-71
2022/01/24 13:36:26;;;;;;;71.30;30.40;;;;;;;;;;10479228;28;20608;-70
2022/01/24 13:41:29;;;;;;;70.38;27.27;;;;;;;;;;10478646;28;20057;-71
2022/01/24 13:46:34;;;;;;;76.72;30.25;;;;;;;;;;10479399;28;20068;-68
2022/01/24 13:51:42;;;;;;;65.20;25.03;;;;;;;;;;10477942;28;20048;-69
2022/01/24 13:56:46;;;;;;;55.55;25.88;;;;;;;;;;10478245;28;20053;-68
2022/01/24 14:02:07;;;;;;;61.10;24.60;;;;;;;;;;10477783;28;20041;-69
2022/01/24 14:07:13;;;;;;;61.58;26.20;;;;;;;;;;10477524;28;20041;-69
2022/01/24 14:12:16;;;;;;;;;;;;;;;;;;10490186;28;20049;-71
2022/01/24 14:17:28;;;;;;;58.90;22.75;;;;;;;;;;10476982;28;20116;-70
2022/01/24 14:22:41;;;;;;;57.30;22.95;;;;;;;;;;10470936;28;20210;-71
2022/01/24 14:27:46;;;;;;;58.15;22.33;;;;;;;;;;10472651;28;20077;-72
2022/01/24 14:33:01;;;;;;;54.85;21.95;;;;;;;;;;10476712;28;20221;-70
2022/01/24 14:38:06;;;;;;;49.57;21.67;;;;;;;;;;10488711;28;20063;-68
2022/01/24 14:48:29;;;;;;;57.13;21.17;;;;;;;;;;10489657;28;20037;-70
2022/01/24 14:53:34;;;;;;;56.13;21.42;;;;;;;;;;10475674;28;20056;-69
2022/01/24 14:58:36;;;;;;;;;;;;;;;;;;10490568;28;20045;-69
2022/01/24 15:03:40;;;;;;;64.85;24.25;;;;;;;;;;10474420;28;19916;-72
2022/01/24 15:08:47;;;;;;;60.05;22.85;;;;;;;;;;10475692;28;20044;-68
2022/01/24 15:13:53;;;;;;;59.03;21.73;;;;;;;;;;10488886;28;20033;-71
2022/01/24 15:24:32;;;;;;;54.45;22.17;;;;;;;;;;10470491;28;20068;-70
2022/01/24 15:29:36;;;;;;;55.78;20.65;;;;;;;;;;10469877;28;20347;-67
2022/01/24 15:34:40;;;;;;;54.88;22.20;;;;;;;;;;10475275;28;20104;-67
2022/01/24 15:39:44;;;;;;;60.20;23.60;;;;;;;;;;10470935;28;20076;-68
2022/01/24 15:50:11;;;;;;;68.93;26.08;;;;;;;;;;10387925;28;20050;-69
2022/01/24 15:55:17;;;;;;;68.80;25.50;;;;;;;;;;10382157;28;20050;-68
2022/01/24 16:00:22;;;;;;;69.28;26.20;;;;;;;;;;10385465;28;20073;-69
2022/01/24 16:05:27;;;;;;;74.17;28.20;;;;;;;;;;10386073;28;20092;-71
2022/01/24 16:10:32;;;;;;;76.05;27.75;;;;;;;;;;10388146;28;20138;-69
2022/01/24 16:15:38;;;;;;;78.13;28.63;;;;;;;;;;10381608;28;20054;-68
2022/01/24 16:20:50;;;;;;;85.10;31.77;;;;;;;;;;10378529;28;20046;-71
2022/01/24 16:25:56;;;;;;;90.88;31.90;;;;;;;;;;10440340;28;20078;-71
2022/01/24 16:30:59;;;;;;;;;;;;;;;;;;10482403;28;20163;-68
2022/01/24 16:36:04;;;;;;;87.68;31.92;;;;;;;;;;10480978;28;19916;-72
2022/01/24 16:41:10;;;;;;;90.25;32.30;;;;;;;;;;10481523;28;20104;-71
2022/01/24 16:51:33;;;;;;;90.68;33.20;;;;;;;;;;10490326;28;20059;-72
2022/01/24 16:56:36;;;;;;;86.00;33.55;;;;;;;;;;10480271;28;20053;-69
2022/01/24 17:01:39;;;;;;;87.45;36.22;;;;;;;;;;10480630;28;20041;-69
2022/01/24 17:06:42;;;;;;;100.55;36.90;;;;;;;;;;10480620;28;20049;-69
2022/01/24 17:11:47;;;;;;;103.28;37.22;;;;;;;;;;10480540;28;20041;-70
2022/01/24 17:16:51;;;;;;;100.68;38.85;;;;;;;;;;10479682;28;20056;-70
2022/01/24 17:21:53;;;;;;;103.88;39.88;;;;;;;;;;10480114;28;20056;-69
2022/01/24 17:26:58;;;;;;;109.43;40.47;;;;;;;;;;10478111;28;20253;-69
2022/01/24 17:32:01;;;;;;;109.22;43.13;;;;;;;;;;10479613;28;20398;-71
2022/01/24 17:37:04;;;;;;;113.68;45.47;;;;;;;;;;10477048;28;20047;-69
2022/01/24 17:42:08;;;;;;;133.15;48.60;;;;;;;;;;10478812;28;20056;-68
2022/01/24 17:47:11;;;;;;;147.32;50.90;;;;;;;;;;10478351;28;20402;-69
2022/01/24 17:52:14;;;;;;;148.68;53.72;;;;;;;;;;10477196;28;20037;-71
2022/01/24 17:57:18;;;;;;;160.30;58.33;;;;;;;;;;10479080;28;20052;-68
2022/01/24 18:02:20;;;;;;;151.43;55.58;;;;;;;;;;10477406;28;20045;-71
2022/01/24 18:07:23;;;;;;;173.35;57.97;;;;;;;;;;10477417;28;20393;-69
2022/01/24 18:12:27;;;;;;;129.05;51.17;;;;;;;;;;10475319;28;20055;-68
2022/01/24 18:17:31;;;;;;;129.18;50.13;;;;;;;;;;10477426;28;20053;-69
2022/01/24 18:22:33;;;;;;;130.18;48.25;;;;;;;;;;10476993;28;20036;-71
2022/01/24 18:27:38;;;;;;;120.50;46.25;;;;;;;;;;10476075;28;20053;-71
2022/01/24 18:32:41;;;;;;;131.65;49.45;;;;;;;;;;10474479;28;20037;-69
2022/01/24 18:37:43;;;;;;;120.80;48.97;;;;;;;;;;10476587;28;20349;-73
2022/01/24 18:42:48;;;;;;;121.43;46.40;;;;;;;;;;10476516;28;20065;-69
2022/01/24 18:47:51;;;;;;;109.15;41.67;;;;;;;;;;10476784;28;20052;-68
2022/01/24 18:52:59;;;;;;;107.60;41.65;;;;;;;;;;10476330;28;20041;-72
2022/01/24 18:58:04;;;;;;;95.90;38.47;;;;;;;;;;10490658;28;20049;-68
2022/01/24 19:03:06;;;;;;;97.82;38.63;;;;;;;;;;10474021;28;20087;-68
2022/01/24 19:08:10;;;;;;;93.55;38.55;;;;;;;;;;10476863;28;20252;-69
2022/01/24 19:13:17;;;;;;;87.78;37.08;;;;;;;;;;10475763;28;20356;-71
2022/01/24 19:18:28;;;;;;;92.60;37.88;;;;;;;;;;10476256;28;20241;-72
2022/01/24 19:23:32;;;;;;;90.68;38.08;;;;;;;;;;10489791;28;20049;-68
2022/01/24 19:28:41;;;;;;;100.60;39.53;;;;;;;;;;10475732;28;20045;-68
2022/01/24 19:33:44;;;;;;;93.65;37.67;;;;;;;;;;10476945;28;20053;-72
2022/01/24 19:38:47;;;;;;;104.05;41.17;;;;;;;;;;10474922;28;20090;-68
2022/01/24 19:43:50;;;;;;;93.55;38.65;;;;;;;;;;10474982;28;20041;-69
2022/01/24 19:48:53;;;;;;;101.35;39.08;;;;;;;;;;10474382;28;20089;-68
2022/01/24 19:53:57;;;;;;;100.20;38.92;;;;;;;;;;10475179;28;20048;-69
2022/01/24 19:59:05;;;;;;;101.50;38.25;;;;;;;;;;10475364;28;20098;-68
2022/01/24 20:04:08;;;;;;;102.88;39.20;;;;;;;;;;10487228;28;20052;-68
2022/01/24 20:09:10;;;;;;;108.43;38.70;;;;;;;;;;10474545;28;20048;-68
2022/01/24 20:14:14;;;;;;;106.20;38.65;;;;;;;;;;10473671;28;20048;-71
2022/01/24 20:19:16;;;;;;;117.30;40.92;;;;;;;;;;10473214;28;20049;-70
2022/01/24 20:24:19;;;;;;;122.68;39.80;;;;;;;;;;10472560;28;20041;-73
2022/01/24 20:29:25;;;;;;;108.65;39.58;;;;;;;;;;10472965;28;20053;-71
2022/01/24 20:34:27;;;;;;;117.28;39.55;;;;;;;;;;10473126;28;20332;-67
2022/01/24 20:39:30;;;;;;;109.65;39.83;;;;;;;;;;10472633;28;20348;-68
2022/01/24 20:44:34;;;;;;;131.60;39.70;;;;;;;;;;10473252;28;20332;-67
2022/01/24 20:49:36;;;;;;;123.45;38.97;;;;;;;;;;10472507;28;20267;-67
2022/01/24 20:54:39;;;;;;;111.13;38.10;;;;;;;;;;10472745;28;20056;-68
2022/01/24 20:59:42;;;;;;;107.20;39.03;;;;;;;;;;10475787;28;20272;-70
2022/01/24 21:04:45;;;;;;;103.95;37.35;;;;;;;;;;10480086;28;20045;-68
2022/01/24 21:09:49;;;;;;;105.93;38.30;;;;;;;;;;10480017;28;20048;-69
2022/01/24 21:14:53;;;;;;;111.03;38.40;;;;;;;;;;10479836;28;20056;-69
2022/01/24 21:19:56;;;;;;;108.40;38.75;;;;;;;;;;10480576;28;20236;-69
2022/01/24 21:24:58;;;;;;;97.15;35.53;;;;;;;;;;10479121;28;20049;-68
2022/01/24 21:30:02;;;;;;;92.30;36.33;;;;;;;;;;10479855;28;20048;-68
2022/01/24 21:35:23;;;;;;;100.82;35.80;;;;;;;;;;10474319;28;20048;-68
2022/01/24 21:40:27;;;;;;;98.80;35.50;;;;;;;;;;10477512;28;20052;-72
2022/01/24 21:45:35;;;;;;;115.10;38.67;;;;;;;;;;10479399;28;20041;-70
2022/01/24 21:50:39;;;;;;;106.30;38.33;;;;;;;;;;10494089;28;20049;-73
2022/01/24 21:55:41;;;;;;;100.53;36.40;;;;;;;;;;10478721;28;20049;-71
2022/01/24 22:00:45;;;;;;;88.30;36.22;;;;;;;;;;10448313;28;20060;-71
2022/01/24 22:05:48;;;;;;;101.90;38.88;;;;;;;;;;10479317;28;20049;-71
2022/01/24 22:10:50;;;;;;;107.47;38.95;;;;;;;;;;10478282;28;20052;-69
2022/01/24 22:15:54;;;;;;;98.72;39.72;;;;;;;;;;10478807;28;20041;-70
2022/01/24 22:20:56;;;;;;;106.20;39.42;;;;;;;;;;10450715;28;20045;-68
2022/01/24 22:26:04;;;;;;;101.55;38.20;;;;;;;;;;10477633;28;20037;-69
2022/01/24 22:31:10;;;;;;;103.43;37.17;;;;;;;;;;10474331;28;20041;-70
2022/01/24 22:36:13;;;;;;;90.22;35.83;;;;;;;;;;10490554;28;20041;-70
2022/01/24 22:41:18;;;;;;;101.90;37.60;;;;;;;;;;10475811;28;20060;-70
2022/01/24 22:46:24;;;;;;;98.73;39.37;;;;;;;;;;10474842;28;20283;-67
2022/01/24 22:51:27;;;;;;;91.97;35.97;;;;;;;;;;10461388;28;20060;-71
2022/01/24 22:56:29;;;;;;;101.70;34.35;;;;;;;;;;10472515;28;20241;-71
2022/01/24 23:01:36;;;;;;;95.00;35.80;;;;;;;;;;10472882;28;20337;-68
2022/01/24 23:06:38;;;;;;;98.93;36.10;;;;;;;;;;10475350;28;20075;-68
2022/01/24 23:11:40;;;;;;;104.07;38.15;;;;;;;;;;10474855;28;20055;-68
2022/01/24 23:22:12;;;;;;;96.50;33.50;;;;;;;;;;10427835;28;20060;-71
2022/01/24 23:27:19;;;;;;;91.63;33.17;;;;;;;;;;10474160;28;20056;-69
2022/01/24 23:32:29;;;;;;;81.45;31.30;;;;;;;;;;10480577;28;20371;-68
2022/01/24 23:42:52;;;;;;;68.57;28.13;;;;;;;;;;10473912;28;20049;-68
2022/01/24 23:47:58;;;;;;;62.63;27.58;;;;;;;;;;10473829;28;20049;-71
2022/01/24 23:53:00;;;;;;;63.33;26.02;;;;;;;;;;10473283;28;20214;-72
2022/01/24 23:58:13;;;;;;;56.22;25.88;;;;;;;;;;10473437;28;20057;-67
